Search for airport 
image banner adimage banner adimage banner ad
image banner ad

PS66 - Parker-Cramer

Located in Clarion, United States

ICAO - PS66, IATA -

Data provided by Airmate  

General information

Coordinates: N41°12'41" W79°21'39"
Elevation is 1480 feet MSL.
Magnetic variation is -08° East
View others Airports in Pennsylvania

Operational data

Special qualification required
Current time UTC:
Current local time:
Weather at : KDUJ - Dubois Rgnl ( 39 km )
METAR: KDUJ 071153Z AUTO 12007KT 10SM FEW055 OVC080 06/M01 A2987 RMK AO2 SLP117 T00611011 10061 20033 56001
TAF: KDUJ 071133Z 0712/0812 10003KT P6SM SCT060 FM071300 15005KT P6SM -SHRA OVC045 FM071500 22006KT 5SM -SHRA OVC020 FM071700 24006KT 3SM -SHRA OVC015 FM072200 31007KT P6SM BKN015 FM080600 27003KT 4SM BR VCSH BKN015
View NOTAMs / SUP AIP / TFR affecting this airport [VIEW]
Communications frequencies: [VIEW]

Runways:

RWY identifierQFULength (ft)Width (ft)SurfaceLDA (ft)
11200090GRASS
29200090GRASS

Airport contact information

Address: Clarion United States

Satellite view of PS66